sensor_id;sensor_type;location;lat;lon;timestamp;temperature;humidity
75615;DHT22;64199;48.578;-4.520;2024-03-29T00:01:16;22.80;51.20
75615;DHT22;64199;48.578;-4.520;2024-03-29T00:03:42;22.80;51.10
75615;DHT22;64199;48.578;-4.520;2024-03-29T00:06:08;22.80;51.10
75615;DHT22;64199;48.578;-4.520;2024-03-29T00:08:34;22.90;51.00
75615;DHT22;64199;48.578;-4.520;2024-03-29T00:11:00;22.90;51.00
75615;DHT22;64199;48.578;-4.520;2024-03-29T00:13:26;22.90;50.90
75615;DHT22;64199;48.578;-4.520;2024-03-29T00:15:52;22.90;50.90
75615;DHT22;64199;48.578;-4.520;2024-03-29T00:18:18;22.90;50.90
75615;DHT22;64199;48.578;-4.520;2024-03-29T00:20:44;23.00;50.90
75615;DHT22;64199;48.578;-4.520;2024-03-29T00:23:09;23.00;50.80
75615;DHT22;64199;48.578;-4.520;2024-03-29T00:25:35;22.90;50.80
75615;DHT22;64199;48.578;-4.520;2024-03-29T00:28:02;23.00;50.90
75615;DHT22;64199;48.578;-4.520;2024-03-29T00:30:29;23.00;50.90
75615;DHT22;64199;48.578;-4.520;2024-03-29T00:32:54;23.00;50.90
75615;DHT22;64199;48.578;-4.520;2024-03-29T00:35:20;23.00;50.90
75615;DHT22;64199;48.578;-4.520;2024-03-29T00:37:49;23.00;50.90
75615;DHT22;64199;48.578;-4.520;2024-03-29T00:40:16;23.10;50.90
75615;DHT22;64199;48.578;-4.520;2024-03-29T00:42:42;23.00;50.80
75615;DHT22;64199;48.578;-4.520;2024-03-29T00:45:08;23.10;50.90
75615;DHT22;64199;48.578;-4.520;2024-03-29T00:47:34;23.10;50.90
75615;DHT22;64199;48.578;-4.520;2024-03-29T00:50:00;23.10;50.80
75615;DHT22;64199;48.578;-4.520;2024-03-29T00:52:25;23.10;50.80
75615;DHT22;64199;48.578;-4.520;2024-03-29T00:54:51;23.10;50.80
75615;DHT22;64199;48.578;-4.520;2024-03-29T00:57:17;23.10;50.70
75615;DHT22;64199;48.578;-4.520;2024-03-29T00:59:43;23.20;50.80
75615;DHT22;64199;48.578;-4.520;2024-03-29T01:02:09;23.20;50.80
75615;DHT22;64199;48.578;-4.520;2024-03-29T01:04:35;23.20;50.80
75615;DHT22;64199;48.578;-4.520;2024-03-29T01:07:01;23.20;50.70
75615;DHT22;64199;48.578;-4.520;2024-03-29T01:09:27;23.20;50.70
75615;DHT22;64199;48.578;-4.520;2024-03-29T01:11:53;23.20;50.70
75615;DHT22;64199;48.578;-4.520;2024-03-29T01:14:19;23.20;50.70
75615;DHT22;64199;48.578;-4.520;2024-03-29T01:16:45;23.20;50.60
75615;DHT22;64199;48.578;-4.520;2024-03-29T01:19:11;23.30;50.70
75615;DHT22;64199;48.578;-4.520;2024-03-29T01:21:37;23.20;50.60
75615;DHT22;64199;48.578;-4.520;2024-03-29T01:24:03;23.30;50.60
75615;DHT22;64199;48.578;-4.520;2024-03-29T01:26:30;23.30;50.60
75615;DHT22;64199;48.578;-4.520;2024-03-29T01:28:56;23.30;50.60
75615;DHT22;64199;48.578;-4.520;2024-03-29T01:31:23;23.30;50.50
75615;DHT22;64199;48.578;-4.520;2024-03-29T01:33:49;23.30;50.50
75615;DHT22;64199;48.578;-4.520;2024-03-29T01:36:15;23.30;50.40
75615;DHT22;64199;48.578;-4.520;2024-03-29T01:38:41;23.30;50.40
75615;DHT22;64199;48.578;-4.520;2024-03-29T01:41:08;23.30;50.40
75615;DHT22;64199;48.578;-4.520;2024-03-29T01:43:34;23.30;50.30
75615;DHT22;64199;48.578;-4.520;2024-03-29T01:46:00;23.30;50.40
75615;DHT22;64199;48.578;-4.520;2024-03-29T01:48:26;23.30;50.30
75615;DHT22;64199;48.578;-4.520;2024-03-29T01:50:56;23.30;50.30
75615;DHT22;64199;48.578;-4.520;2024-03-29T01:53:22;23.40;50.30
75615;DHT22;64199;48.578;-4.520;2024-03-29T01:55:49;23.40;50.30
75615;DHT22;64199;48.578;-4.520;2024-03-29T01:58:16;23.40;50.30
75615;DHT22;64199;48.578;-4.520;2024-03-29T02:00:57;23.40;50.30
75615;DHT22;64199;48.578;-4.520;2024-03-29T02:03:23;23.40;50.20
75615;DHT22;64199;48.578;-4.520;2024-03-29T02:05:50;23.40;50.20
75615;DHT22;64199;48.578;-4.520;2024-03-29T02:08:16;23.40;50.20
75615;DHT22;64199;48.578;-4.520;2024-03-29T02:10:44;23.50;50.30
75615;DHT22;64199;48.578;-4.520;2024-03-29T02:13:11;23.50;50.20
75615;DHT22;64199;48.578;-4.520;2024-03-29T02:15:38;23.50;50.20
75615;DHT22;64199;48.578;-4.520;2024-03-29T02:18:05;23.50;50.20
75615;DHT22;64199;48.578;-4.520;2024-03-29T02:20:32;23.50;50.20
75615;DHT22;64199;48.578;-4.520;2024-03-29T02:23:00;23.50;50.20
75615;DHT22;64199;48.578;-4.520;2024-03-29T02:25:28;23.50;50.20
75615;DHT22;64199;48.578;-4.520;2024-03-29T02:27:54;23.50;50.20
75615;DHT22;64199;48.578;-4.520;2024-03-29T02:30:20;23.50;50.10
75615;DHT22;64199;48.578;-4.520;2024-03-29T02:32:46;23.50;50.10
75615;DHT22;64199;48.578;-4.520;2024-03-29T02:35:12;23.50;50.10
75615;DHT22;64199;48.578;-4.520;2024-03-29T02:37:38;23.60;50.10
75615;DHT22;64199;48.578;-4.520;2024-03-29T02:40:05;23.50;50.00
75615;DHT22;64199;48.578;-4.520;2024-03-29T02:42:31;23.50;50.00
75615;DHT22;64199;48.578;-4.520;2024-03-29T02:44:58;23.50;50.00
75615;DHT22;64199;48.578;-4.520;2024-03-29T02:47:24;23.50;49.90
75615;DHT22;64199;48.578;-4.520;2024-03-29T02:49:49;23.40;49.70
75615;DHT22;64199;48.578;-4.520;2024-03-29T02:52:15;23.40;49.60
75615;DHT22;64199;48.578;-4.520;2024-03-29T02:54:41;23.30;49.30
75615;DHT22;64199;48.578;-4.520;2024-03-29T02:57:07;23.30;49.10
75615;DHT22;64199;48.578;-4.520;2024-03-29T02:59:33;23.20;49.00
75615;DHT22;64199;48.578;-4.520;2024-03-29T03:01:59;23.20;48.80
75615;DHT22;64199;48.578;-4.520;2024-03-29T03:04:25;23.10;48.70
75615;DHT22;64199;48.578;-4.520;2024-03-29T03:06:51;23.10;48.80
75615;DHT22;64199;48.578;-4.520;2024-03-29T03:09:17;23.00;48.70
75615;DHT22;64199;48.578;-4.520;2024-03-29T03:12:01;23.00;49.00
75615;DHT22;64199;48.578;-4.520;2024-03-29T03:14:27;22.90;49.00
75615;DHT22;64199;48.578;-4.520;2024-03-29T03:16:53;22.90;49.10
75615;DHT22;64199;48.578;-4.520;2024-03-29T03:19:19;22.90;49.20
75615;DHT22;64199;48.578;-4.520;2024-03-29T03:21:45;22.80;49.20
75615;DHT22;64199;48.578;-4.520;2024-03-29T03:24:10;22.80;49.30
75615;DHT22;64199;48.578;-4.520;2024-03-29T03:26:37;22.70;49.20
75615;DHT22;64199;48.578;-4.520;2024-03-29T03:29:04;22.70;49.30
75615;DHT22;64199;48.578;-4.520;2024-03-29T03:31:30;22.70;49.30
75615;DHT22;64199;48.578;-4.520;2024-03-29T03:33:56;22.70;49.30
75615;DHT22;64199;48.578;-4.520;2024-03-29T03:36:22;22.60;49.30
75615;DHT22;64199;48.578;-4.520;2024-03-29T03:38:48;22.60;49.30
75615;DHT22;64199;48.578;-4.520;2024-03-29T03:41:14;22.50;49.40
75615;DHT22;64199;48.578;-4.520;2024-03-29T03:43:40;22.50;49.40
75615;DHT22;64199;48.578;-4.520;2024-03-29T03:46:06;22.50;49.40
75615;DHT22;64199;48.578;-4.520;2024-03-29T03:48:32;22.40;49.40
75615;DHT22;64199;48.578;-4.520;2024-03-29T03:50:57;22.40;49.50
75615;DHT22;64199;48.578;-4.520;2024-03-29T03:53:23;22.40;49.70
75615;DHT22;64199;48.578;-4.520;2024-03-29T03:55:49;22.30;49.80
75615;DHT22;64199;48.578;-4.520;2024-03-29T03:58:15;22.30;50.50
75615;DHT22;64199;48.578;-4.520;2024-03-29T04:00:41;22.30;49.90
75615;DHT22;64199;48.578;-4.520;2024-03-29T04:03:07;22.20;49.90
75615;DHT22;64199;48.578;-4.520;2024-03-29T04:05:33;22.20;50.00
75615;DHT22;64199;48.578;-4.520;2024-03-29T04:08:02;22.20;50.00
75615;DHT22;64199;48.578;-4.520;2024-03-29T04:10:28;22.10;50.00
75615;DHT22;64199;48.578;-4.520;2024-03-29T04:12:53;22.10;50.10
75615;DHT22;64199;48.578;-4.520;2024-03-29T04:15:19;22.10;50.10
75615;DHT22;64199;48.578;-4.520;2024-03-29T04:17:45;22.00;50.10
75615;DHT22;64199;48.578;-4.520;2024-03-29T04:20:11;22.00;50.10
75615;DHT22;64199;48.578;-4.520;2024-03-29T04:22:37;22.00;50.20
75615;DHT22;64199;48.578;-4.520;2024-03-29T04:25:03;22.00;50.20
75615;DHT22;64199;48.578;-4.520;2024-03-29T04:27:29;21.90;50.30
75615;DHT22;64199;48.578;-4.520;2024-03-29T04:29:55;21.90;50.30
75615;DHT22;64199;48.578;-4.520;2024-03-29T04:32:21;21.90;50.20
75615;DHT22;64199;48.578;-4.520;2024-03-29T04:34:48;21.80;50.10
75615;DHT22;64199;48.578;-4.520;2024-03-29T04:37:14;21.90;50.30
75615;DHT22;64199;48.578;-4.520;2024-03-29T04:39:42;21.90;50.30
75615;DHT22;64199;48.578;-4.520;2024-03-29T04:42:08;21.80;50.30
75615;DHT22;64199;48.578;-4.520;2024-03-29T04:44:34;21.80;50.30
75615;DHT22;64199;48.578;-4.520;2024-03-29T04:47:00;21.90;50.50
75615;DHT22;64199;48.578;-4.520;2024-03-29T04:49:27;21.90;50.60
75615;DHT22;64199;48.578;-4.520;2024-03-29T04:52:06;21.90;50.60
75615;DHT22;64199;48.578;-4.520;2024-03-29T04:54:35;21.90;50.70
75615;DHT22;64199;48.578;-4.520;2024-03-29T04:57:01;21.90;50.70
75615;DHT22;64199;48.578;-4.520;2024-03-29T04:59:29;21.90;50.80
75615;DHT22;64199;48.578;-4.520;2024-03-29T05:01:55;21.90;50.80
75615;DHT22;64199;48.578;-4.520;2024-03-29T05:04:23;21.90;50.80
75615;DHT22;64199;48.578;-4.520;2024-03-29T05:09:19;22.00;50.80
75615;DHT22;64199;48.578;-4.520;2024-03-29T05:11:45;21.90;50.90
75615;DHT22;64199;48.578;-4.520;2024-03-29T05:14:16;22.00;50.90
75615;DHT22;64199;48.578;-4.520;2024-03-29T05:16:45;22.00;50.90
75615;DHT22;64199;48.578;-4.520;2024-03-29T05:19:12;22.00;51.50
75615;DHT22;64199;48.578;-4.520;2024-03-29T05:21:39;22.00;51.00
75615;DHT22;64199;48.578;-4.520;2024-03-29T05:24:06;22.00;51.00
75615;DHT22;64199;48.578;-4.520;2024-03-29T05:26:32;22.00;51.00
75615;DHT22;64199;48.578;-4.520;2024-03-29T05:28:58;22.00;51.00
75615;DHT22;64199;48.578;-4.520;2024-03-29T05:31:26;22.00;51.00
75615;DHT22;64199;48.578;-4.520;2024-03-29T05:33:52;22.10;51.00
75615;DHT22;64199;48.578;-4.520;2024-03-29T05:36:19;22.10;51.10
75615;DHT22;64199;48.578;-4.520;2024-03-29T05:38:45;22.10;51.10
75615;DHT22;64199;48.578;-4.520;2024-03-29T05:41:11;22.10;51.10
75615;DHT22;64199;48.578;-4.520;2024-03-29T05:43:39;22.10;51.10
75615;DHT22;64199;48.578;-4.520;2024-03-29T05:46:07;22.10;51.10
75615;DHT22;64199;48.578;-4.520;2024-03-29T05:48:33;22.10;51.10
75615;DHT22;64199;48.578;-4.520;2024-03-29T05:50:59;22.20;51.10
75615;DHT22;64199;48.578;-4.520;2024-03-29T05:53:25;22.20;51.10
75615;DHT22;64199;48.578;-4.520;2024-03-29T05:55:51;22.20;51.10
75615;DHT22;64199;48.578;-4.520;2024-03-29T05:58:17;22.20;51.10
75615;DHT22;64199;48.578;-4.520;2024-03-29T06:00:44;22.20;51.10
75615;DHT22;64199;48.578;-4.520;2024-03-29T06:03:10;22.20;51.10
75615;DHT22;64199;48.578;-4.520;2024-03-29T06:05:36;22.20;51.10
75615;DHT22;64199;48.578;-4.520;2024-03-29T06:08:02;22.30;51.20
75615;DHT22;64199;48.578;-4.520;2024-03-29T06:10:28;22.30;51.30
75615;DHT22;64199;48.578;-4.520;2024-03-29T06:12:54;22.30;51.40
75615;DHT22;64199;48.578;-4.520;2024-03-29T06:15:20;22.30;51.40
75615;DHT22;64199;48.578;-4.520;2024-03-29T06:18:04;22.30;51.40
75615;DHT22;64199;48.578;-4.520;2024-03-29T06:20:30;22.30;51.40
75615;DHT22;64199;48.578;-4.520;2024-03-29T06:22:56;22.30;51.30
75615;DHT22;64199;48.578;-4.520;2024-03-29T06:25:22;22.30;51.30
75615;DHT22;64199;48.578;-4.520;2024-03-29T06:27:48;22.30;51.20
75615;DHT22;64199;48.578;-4.520;2024-03-29T06:30:15;22.30;51.20
75615;DHT22;64199;48.578;-4.520;2024-03-29T06:32:45;22.30;51.20
75615;DHT22;64199;48.578;-4.520;2024-03-29T06:35:12;22.30;51.20
75615;DHT22;64199;48.578;-4.520;2024-03-29T06:37:38;22.40;51.20
75615;DHT22;64199;48.578;-4.520;2024-03-29T06:40:05;22.40;51.20
75615;DHT22;64199;48.578;-4.520;2024-03-29T06:42:32;22.40;51.10
75615;DHT22;64199;48.578;-4.520;2024-03-29T06:44:58;22.40;51.10
75615;DHT22;64199;48.578;-4.520;2024-03-29T06:47:25;22.40;51.10
75615;DHT22;64199;48.578;-4.520;2024-03-29T06:49:50;22.40;51.10
75615;DHT22;64199;48.578;-4.520;2024-03-29T06:52:16;22.40;51.10
75615;DHT22;64199;48.578;-4.520;2024-03-29T06:54:42;22.40;51.10
75615;DHT22;64199;48.578;-4.520;2024-03-29T06:57:08;22.40;51.00
75615;DHT22;64199;48.578;-4.520;2024-03-29T06:59:35;22.40;51.70
75615;DHT22;64199;48.578;-4.520;2024-03-29T07:02:02;22.40;51.00
75615;DHT22;64199;48.578;-4.520;2024-03-29T07:04:27;22.50;51.00
75615;DHT22;64199;48.578;-4.520;2024-03-29T07:06:54;22.50;51.00
75615;DHT22;64199;48.578;-4.520;2024-03-29T07:09:21;22.50;51.00
75615;DHT22;64199;48.578;-4.520;2024-03-29T07:11:48;22.50;50.50
75615;DHT22;64199;48.578;-4.520;2024-03-29T07:14:15;22.50;51.00
75615;DHT22;64199;48.578;-4.520;2024-03-29T07:16:42;22.50;51.00
75615;DHT22;64199;48.578;-4.520;2024-03-29T07:19:08;22.60;51.00
75615;DHT22;64199;48.578;-4.520;2024-03-29T07:21:34;22.50;50.90
75615;DHT22;64199;48.578;-4.520;2024-03-29T07:24:00;22.50;50.90
75615;DHT22;64199;48.578;-4.520;2024-03-29T07:26:26;22.60;50.90
75615;DHT22;64199;48.578;-4.520;2024-03-29T07:28:52;22.60;50.90
75615;DHT22;64199;48.578;-4.520;2024-03-29T07:31:18;22.60;50.90
75615;DHT22;64199;48.578;-4.520;2024-03-29T07:33:44;22.60;50.90
75615;DHT22;64199;48.578;-4.520;2024-03-29T07:36:10;22.60;51.00
75615;DHT22;64199;48.578;-4.520;2024-03-29T07:38:37;22.60;51.10
75615;DHT22;64199;48.578;-4.520;2024-03-29T07:41:03;22.60;51.20
75615;DHT22;64199;48.578;-4.520;2024-03-29T07:43:59;22.60;51.20
75615;DHT22;64199;48.578;-4.520;2024-03-29T07:46:34;22.60;51.20
75615;DHT22;64199;48.578;-4.520;2024-03-29T07:49:00;22.70;51.30
75615;DHT22;64199;48.578;-4.520;2024-03-29T07:51:26;22.70;51.20
75615;DHT22;64199;48.578;-4.520;2024-03-29T07:53:52;22.70;51.20
75615;DHT22;64199;48.578;-4.520;2024-03-29T07:56:18;22.70;51.10
75615;DHT22;64199;48.578;-4.520;2024-03-29T07:58:44;22.70;51.10
75615;DHT22;64199;48.578;-4.520;2024-03-29T08:01:10;22.70;51.10
75615;DHT22;64199;48.578;-4.520;2024-03-29T08:03:36;22.70;51.10
75615;DHT22;64199;48.578;-4.520;2024-03-29T08:06:03;22.70;51.10
75615;DHT22;64199;48.578;-4.520;2024-03-29T08:08:33;22.70;51.10
75615;DHT22;64199;48.578;-4.520;2024-03-29T08:11:02;22.70;51.10
75615;DHT22;64199;48.578;-4.520;2024-03-29T08:13:28;22.70;51.00
75615;DHT22;64199;48.578;-4.520;2024-03-29T08:16:01;22.70;51.10
75615;DHT22;64199;48.578;-4.520;2024-03-29T08:18:27;22.70;51.10
75615;DHT22;64199;48.578;-4.520;2024-03-29T08:20:53;22.80;51.10
75615;DHT22;64199;48.578;-4.520;2024-03-29T08:23:24;22.80;51.10
75615;DHT22;64199;48.578;-4.520;2024-03-29T08:25:50;22.80;51.00
75615;DHT22;64199;48.578;-4.520;2024-03-29T08:28:18;22.80;50.90
75615;DHT22;64199;48.578;-4.520;2024-03-29T08:30:44;22.80;50.90
75615;DHT22;64199;48.578;-4.520;2024-03-29T08:33:10;22.80;50.80
75615;DHT22;64199;48.578;-4.520;2024-03-29T08:35:36;22.80;50.80
75615;DHT22;64199;48.578;-4.520;2024-03-29T08:38:02;22.80;50.80
75615;DHT22;64199;48.578;-4.520;2024-03-29T08:40:29;22.80;50.80
75615;DHT22;64199;48.578;-4.520;2024-03-29T08:42:58;22.80;50.90
75615;DHT22;64199;48.578;-4.520;2024-03-29T08:45:23;22.80;50.90
75615;DHT22;64199;48.578;-4.520;2024-03-29T08:47:49;22.80;50.90
75615;DHT22;64199;48.578;-4.520;2024-03-29T08:50:15;22.80;50.80
75615;DHT22;64199;48.578;-4.520;2024-03-29T08:52:41;22.90;50.80
75615;DHT22;64199;48.578;-4.520;2024-03-29T08:55:08;22.90;50.80
75615;DHT22;64199;48.578;-4.520;2024-03-29T08:57:34;22.90;50.70
75615;DHT22;64199;48.578;-4.520;2024-03-29T09:00:00;22.90;50.70
75615;DHT22;64199;48.578;-4.520;2024-03-29T09:02:26;22.90;50.60
75615;DHT22;64199;48.578;-4.520;2024-03-29T09:04:52;22.90;50.50
75615;DHT22;64199;48.578;-4.520;2024-03-29T09:07:18;22.80;50.20
75615;DHT22;64199;48.578;-4.520;2024-03-29T09:09:44;22.80;50.10
75615;DHT22;64199;48.578;-4.520;2024-03-29T09:12:09;22.80;50.10
75615;DHT22;64199;48.578;-4.520;2024-03-29T09:14:35;22.80;50.20
75615;DHT22;64199;48.578;-4.520;2024-03-29T09:17:01;22.80;50.20
75615;DHT22;64199;48.578;-4.520;2024-03-29T09:19:28;22.80;50.20
75615;DHT22;64199;48.578;-4.520;2024-03-29T09:21:56;22.80;50.10
75615;DHT22;64199;48.578;-4.520;2024-03-29T09:24:21;22.80;50.10
75615;DHT22;64199;48.578;-4.520;2024-03-29T09:26:51;22.80;50.10
75615;DHT22;64199;48.578;-4.520;2024-03-29T09:29:17;22.80;50.00
75615;DHT22;64199;48.578;-4.520;2024-03-29T09:31:45;22.90;50.00
75615;DHT22;64199;48.578;-4.520;2024-03-29T09:34:12;22.90;50.00
75615;DHT22;64199;48.578;-4.520;2024-03-29T09:36:38;22.90;50.00
75615;DHT22;64199;48.578;-4.520;2024-03-29T09:39:05;23.00;50.00
75615;DHT22;64199;48.578;-4.520;2024-03-29T09:41:32;23.00;50.00
75615;DHT22;64199;48.578;-4.520;2024-03-29T09:44:03;23.00;50.00
75615;DHT22;64199;48.578;-4.520;2024-03-29T09:46:33;23.00;50.10
75615;DHT22;64199;48.578;-4.520;2024-03-29T09:49:01;23.00;50.00
75615;DHT22;64199;48.578;-4.520;2024-03-29T09:51:27;23.00;50.00
75615;DHT22;64199;48.578;-4.520;2024-03-29T09:53:56;23.00;50.00
75615;DHT22;64199;48.578;-4.520;2024-03-29T09:56:25;23.10;50.00
75615;DHT22;64199;48.578;-4.520;2024-03-29T09:58:52;23.10;50.00
75615;DHT22;64199;48.578;-4.520;2024-03-29T10:01:18;23.10;50.00
75615;DHT22;64199;48.578;-4.520;2024-03-29T10:03:52;23.10;50.00
75615;DHT22;64199;48.578;-4.520;2024-03-29T10:06:19;23.10;50.00
75615;DHT22;64199;48.578;-4.520;2024-03-29T10:08:47;23.10;50.00
75615;DHT22;64199;48.578;-4.520;2024-03-29T10:11:14;23.10;49.90
75615;DHT22;64199;48.578;-4.520;2024-03-29T10:13:45;23.10;49.90
75615;DHT22;64199;48.578;-4.520;2024-03-29T10:16:11;23.10;50.50
75615;DHT22;64199;48.578;-4.520;2024-03-29T10:18:40;23.20;49.80
75615;DHT22;64199;48.578;-4.520;2024-03-29T10:21:07;23.20;49.80
75615;DHT22;64199;48.578;-4.520;2024-03-29T10:23:34;23.20;49.80
75615;DHT22;64199;48.578;-4.520;2024-03-29T10:26:01;23.20;49.80
75615;DHT22;64199;48.578;-4.520;2024-03-29T10:28:35;23.30;50.00
75615;DHT22;64199;48.578;-4.520;2024-03-29T10:31:02;23.20;49.80
75615;DHT22;64199;48.578;-4.520;2024-03-29T10:33:31;23.20;49.70
75615;DHT22;64199;48.578;-4.520;2024-03-29T10:36:01;23.30;49.80
75615;DHT22;64199;48.578;-4.520;2024-03-29T10:38:30;23.30;49.80
75615;DHT22;64199;48.578;-4.520;2024-03-29T10:40:56;23.30;49.80
75615;DHT22;64199;48.578;-4.520;2024-03-29T10:43:24;23.30;49.70
75615;DHT22;64199;48.578;-4.520;2024-03-29T10:45:50;23.30;49.70
75615;DHT22;64199;48.578;-4.520;2024-03-29T10:48:21;23.30;49.70
75615;DHT22;64199;48.578;-4.520;2024-03-29T10:50:48;23.30;49.70
75615;DHT22;64199;48.578;-4.520;2024-03-29T10:53:17;23.40;49.80
75615;DHT22;64199;48.578;-4.520;2024-03-29T10:55:43;23.40;49.70
75615;DHT22;64199;48.578;-4.520;2024-03-29T10:58:12;23.40;49.70
75615;DHT22;64199;48.578;-4.520;2024-03-29T11:00:46;23.40;49.60
75615;DHT22;64199;48.578;-4.520;2024-03-29T11:03:15;23.50;49.70
75615;DHT22;64199;48.578;-4.520;2024-03-29T11:05:48;23.50;49.60
75615;DHT22;64199;48.578;-4.520;2024-03-29T11:08:22;23.50;49.60
75615;DHT22;64199;48.578;-4.520;2024-03-29T11:10:51;23.50;49.60
75615;DHT22;64199;48.578;-4.520;2024-03-29T11:15:54;23.50;49.60
75615;DHT22;64199;48.578;-4.520;2024-03-29T11:18:21;23.60;49.70
75615;DHT22;64199;48.578;-4.520;2024-03-29T11:20:50;23.60;49.70
75615;DHT22;64199;48.578;-4.520;2024-03-29T11:23:21;23.60;49.70
75615;DHT22;64199;48.578;-4.520;2024-03-29T11:25:55;23.60;49.70
75615;DHT22;64199;48.578;-4.520;2024-03-29T11:28:30;23.70;49.70
75615;DHT22;64199;48.578;-4.520;2024-03-29T11:31:07;23.70;49.70
75615;DHT22;64199;48.578;-4.520;2024-03-29T11:33:35;23.70;49.70
75615;DHT22;64199;48.578;-4.520;2024-03-29T11:36:22;23.70;49.70
75615;DHT22;64199;48.578;-4.520;2024-03-29T11:38:52;23.70;49.70
75615;DHT22;64199;48.578;-4.520;2024-03-29T11:41:25;23.70;49.70
75615;DHT22;64199;48.578;-4.520;2024-03-29T11:43:53;23.80;49.70
75615;DHT22;64199;48.578;-4.520;2024-03-29T11:46:19;23.80;49.70
75615;DHT22;64199;48.578;-4.520;2024-03-29T11:48:46;23.80;49.70
75615;DHT22;64199;48.578;-4.520;2024-03-29T11:51:16;23.80;49.70
75615;DHT22;64199;48.578;-4.520;2024-03-29T11:53:42;23.80;49.60
75615;DHT22;64199;48.578;-4.520;2024-03-29T11:56:09;23.80;49.60
75615;DHT22;64199;48.578;-4.520;2024-03-29T11:58:37;23.80;49.50
75615;DHT22;64199;48.578;-4.520;2024-03-29T12:01:04;23.70;49.50
75615;DHT22;64199;48.578;-4.520;2024-03-29T12:03:31;23.70;49.40
75615;DHT22;64199;48.578;-4.520;2024-03-29T12:05:58;23.70;49.40
75615;DHT22;64199;48.578;-4.520;2024-03-29T12:08:29;23.70;49.40
75615;DHT22;64199;48.578;-4.520;2024-03-29T12:11:00;23.70;49.40
75615;DHT22;64199;48.578;-4.520;2024-03-29T12:13:27;23.70;49.40
75615;DHT22;64199;48.578;-4.520;2024-03-29T12:15:53;23.60;49.20
75615;DHT22;64199;48.578;-4.520;2024-03-29T12:18:23;23.60;49.20
75615;DHT22;64199;48.578;-4.520;2024-03-29T12:20:50;23.60;49.20
75615;DHT22;64199;48.578;-4.520;2024-03-29T12:23:18;23.60;49.10
75615;DHT22;64199;48.578;-4.520;2024-03-29T12:25:45;23.60;49.10
75615;DHT22;64199;48.578;-4.520;2024-03-29T12:28:12;23.50;49.00
75615;DHT22;64199;48.578;-4.520;2024-03-29T12:30:47;23.50;49.00
75615;DHT22;64199;48.578;-4.520;2024-03-29T12:33:18;23.40;48.90
75615;DHT22;64199;48.578;-4.520;2024-03-29T12:35:49;23.40;48.90
75615;DHT22;64199;48.578;-4.520;2024-03-29T12:38:16;23.40;48.90
75615;DHT22;64199;48.578;-4.520;2024-03-29T12:40:44;23.30;48.90
75615;DHT22;64199;48.578;-4.520;2024-03-29T12:43:10;23.30;49.00
75615;DHT22;64199;48.578;-4.520;2024-03-29T12:45:41;23.30;49.10
75615;DHT22;64199;48.578;-4.520;2024-03-29T12:48:17;23.20;49.10
75615;DHT22;64199;48.578;-4.520;2024-03-29T12:50:45;23.20;49.20
75615;DHT22;64199;48.578;-4.520;2024-03-29T12:53:13;23.20;49.20
75615;DHT22;64199;48.578;-4.520;2024-03-29T12:55:43;23.20;49.30
75615;DHT22;64199;48.578;-4.520;2024-03-29T12:58:13;23.10;49.20
75615;DHT22;64199;48.578;-4.520;2024-03-29T13:00:41;23.10;49.10
75615;DHT22;64199;48.578;-4.520;2024-03-29T13:03:07;23.00;48.90
75615;DHT22;64199;48.578;-4.520;2024-03-29T13:05:37;23.00;48.80
75615;DHT22;64199;48.578;-4.520;2024-03-29T13:08:14;23.00;48.70
75615;DHT22;64199;48.578;-4.520;2024-03-29T13:10:43;22.90;48.70
75615;DHT22;64199;48.578;-4.520;2024-03-29T13:13:10;22.90;48.60
75615;DHT22;64199;48.578;-4.520;2024-03-29T13:15:37;22.90;48.50
75615;DHT22;64199;48.578;-4.520;2024-03-29T13:18:04;22.80;48.50
75615;DHT22;64199;48.578;-4.520;2024-03-29T13:20:31;22.80;48.70
75615;DHT22;64199;48.578;-4.520;2024-03-29T13:22:59;22.80;48.80
75615;DHT22;64199;48.578;-4.520;2024-03-29T13:25:25;22.70;48.80
75615;DHT22;64199;48.578;-4.520;2024-03-29T13:27:52;22.70;48.80
75615;DHT22;64199;48.578;-4.520;2024-03-29T13:30:22;22.70;48.80
75615;DHT22;64199;48.578;-4.520;2024-03-29T13:32:48;22.70;48.90
75615;DHT22;64199;48.578;-4.520;2024-03-29T13:35:15;22.70;48.90
75615;DHT22;64199;48.578;-4.520;2024-03-29T13:37:45;22.70;49.00
75615;DHT22;64199;48.578;-4.520;2024-03-29T13:40:21;22.60;48.90
75615;DHT22;64199;48.578;-4.520;2024-03-29T13:42:47;22.60;48.90
75615;DHT22;64199;48.578;-4.520;2024-03-29T13:45:14;22.60;48.90
75615;DHT22;64199;48.578;-4.520;2024-03-29T13:47:43;22.50;48.90
75615;DHT22;64199;48.578;-4.520;2024-03-29T13:50:10;22.60;49.20
75615;DHT22;64199;48.578;-4.520;2024-03-29T13:52:37;22.50;48.90
75615;DHT22;64199;48.578;-4.520;2024-03-29T13:55:04;22.50;48.90
75615;DHT22;64199;48.578;-4.520;2024-03-29T13:57:30;22.40;48.90
75615;DHT22;64199;48.578;-4.520;2024-03-29T13:59:57;22.40;48.90
75615;DHT22;64199;48.578;-4.520;2024-03-29T14:02:26;22.40;48.90
75615;DHT22;64199;48.578;-4.520;2024-03-29T14:04:53;22.40;48.90
75615;DHT22;64199;48.578;-4.520;2024-03-29T14:07:20;22.40;48.90
75615;DHT22;64199;48.578;-4.520;2024-03-29T14:09:46;22.40;49.00
75615;DHT22;64199;48.578;-4.520;2024-03-29T14:12:13;22.40;49.00
75615;DHT22;64199;48.578;-4.520;2024-03-29T14:14:40;22.30;48.90
75615;DHT22;64199;48.578;-4.520;2024-03-29T14:17:09;22.30;49.00
75615;DHT22;64199;48.578;-4.520;2024-03-29T14:19:38;22.30;49.00
75615;DHT22;64199;48.578;-4.520;2024-03-29T14:22:04;22.30;49.00
75615;DHT22;64199;48.578;-4.520;2024-03-29T14:24:31;22.30;49.00
75615;DHT22;64199;48.578;-4.520;2024-03-29T14:27:03;22.20;49.00
75615;DHT22;64199;48.578;-4.520;2024-03-29T14:29:33;22.20;49.00
75615;DHT22;64199;48.578;-4.520;2024-03-29T14:32:00;22.20;49.00
75615;DHT22;64199;48.578;-4.520;2024-03-29T14:34:26;22.20;49.00
75615;DHT22;64199;48.578;-4.520;2024-03-29T14:36:52;22.20;49.00
75615;DHT22;64199;48.578;-4.520;2024-03-29T14:39:19;22.20;49.10
75615;DHT22;64199;48.578;-4.520;2024-03-29T14:41:50;22.10;49.10
75615;DHT22;64199;48.578;-4.520;2024-03-29T14:44:17;22.10;49.10
75615;DHT22;64199;48.578;-4.520;2024-03-29T14:46:44;22.10;49.10
75615;DHT22;64199;48.578;-4.520;2024-03-29T14:49:10;22.00;49.00
75615;DHT22;64199;48.578;-4.520;2024-03-29T14:51:38;22.00;49.10
75615;DHT22;64199;48.578;-4.520;2024-03-29T14:54:04;22.00;49.10
75615;DHT22;64199;48.578;-4.520;2024-03-29T14:56:31;22.00;49.10
75615;DHT22;64199;48.578;-4.520;2024-03-29T14:59:02;22.00;49.20
75615;DHT22;64199;48.578;-4.520;2024-03-29T15:01:28;22.00;49.20
75615;DHT22;64199;48.578;-4.520;2024-03-29T15:03:54;21.90;49.20
75615;DHT22;64199;48.578;-4.520;2024-03-29T15:06:20;21.90;49.20
75615;DHT22;64199;48.578;-4.520;2024-03-29T15:08:48;21.90;49.30
75615;DHT22;64199;48.578;-4.520;2024-03-29T15:11:14;21.90;49.40
75615;DHT22;64199;48.578;-4.520;2024-03-29T15:13:40;21.80;49.30
75615;DHT22;64199;48.578;-4.520;2024-03-29T15:16:06;21.80;49.40
75615;DHT22;64199;48.578;-4.520;2024-03-29T15:18:32;21.80;49.50
75615;DHT22;64199;48.578;-4.520;2024-03-29T15:21:01;21.80;49.50